sensor_id;sensor_type;location;lat;lon;timestamp;temperature;humidity
46217;DHT22;47258;59.424;13.482;2022-08-20T09:21:41;22.00;99.90
46217;DHT22;47258;59.424;13.482;2022-08-20T09:24:08;22.10;99.90
46217;DHT22;47258;59.424;13.482;2022-08-20T09:26:35;22.10;99.90
46217;DHT22;47258;59.424;13.482;2022-08-20T09:29:04;22.10;99.90
46217;DHT22;47258;59.424;13.482;2022-08-20T09:31:30;22.10;99.90
46217;DHT22;47258;59.424;13.482;2022-08-20T09:33:57;22.10;99.90
46217;DHT22;47258;59.424;13.482;2022-08-20T09:36:25;22.20;99.90
46217;DHT22;47258;59.424;13.482;2022-08-20T09:38:52;22.30;99.90
46217;DHT22;47258;59.424;13.482;2022-08-20T09:41:19;22.40;99.90
46217;DHT22;47258;59.424;13.482;2022-08-20T09:43:46;22.50;99.90
46217;DHT22;47258;59.424;13.482;2022-08-20T09:46:14;22.60;99.90
46217;DHT22;47258;59.424;13.482;2022-08-20T09:48:41;22.60;99.90
46217;DHT22;47258;59.424;13.482;2022-08-20T09:51:08;22.60;99.90
46217;DHT22;47258;59.424;13.482;2022-08-20T09:53:35;22.70;99.90
46217;DHT22;47258;59.424;13.482;2022-08-20T09:56:03;22.90;99.90
46217;DHT22;47258;59.424;13.482;2022-08-20T09:58:34;23.20;99.90
46217;DHT22;47258;59.424;13.482;2022-08-20T10:01:07;23.30;99.90
46217;DHT22;47258;59.424;13.482;2022-08-20T10:03:35;23.50;99.90
46217;DHT22;47258;59.424;13.482;2022-08-20T10:06:02;23.70;99.90
46217;DHT22;47258;59.424;13.482;2022-08-20T10:08:29;24.00;99.90
46217;DHT22;47258;59.424;13.482;2022-08-20T10:10:56;24.10;99.90
46217;DHT22;47258;59.424;13.482;2022-08-20T10:13:23;24.00;99.90
46217;DHT22;47258;59.424;13.482;2022-08-20T10:15:50;24.10;99.90
46217;DHT22;47258;59.424;13.482;2022-08-20T10:18:17;24.10;99.90
46217;DHT22;47258;59.424;13.482;2022-08-20T10:20:46;24.20;99.90
46217;DHT22;47258;59.424;13.482;2022-08-20T10:23:13;24.20;99.90
46217;DHT22;47258;59.424;13.482;2022-08-20T10:25:41;24.30;99.90
46217;DHT22;47258;59.424;13.482;2022-08-20T10:28:08;24.30;99.90
46217;DHT22;47258;59.424;13.482;2022-08-20T10:30:35;24.30;99.90
46217;DHT22;47258;59.424;13.482;2022-08-20T10:33:02;24.20;99.90
46217;DHT22;47258;59.424;13.482;2022-08-20T10:35:29;24.20;99.90
46217;DHT22;47258;59.424;13.482;2022-08-20T10:37:58;24.10;99.90
46217;DHT22;47258;59.424;13.482;2022-08-20T10:40:25;24.10;99.90
46217;DHT22;47258;59.424;13.482;2022-08-20T10:42:52;24.10;99.90
46217;DHT22;47258;59.424;13.482;2022-08-20T10:45:19;24.20;99.90
46217;DHT22;47258;59.424;13.482;2022-08-20T10:47:46;24.20;99.90
46217;DHT22;47258;59.424;13.482;2022-08-20T10:50:15;24.20;99.90
46217;DHT22;47258;59.424;13.482;2022-08-20T10:52:44;24.10;99.90
46217;DHT22;47258;59.424;13.482;2022-08-20T10:55:13;24.10;99.90
46217;DHT22;47258;59.424;13.482;2022-08-20T10:57:40;24.10;99.90
46217;DHT22;47258;59.424;13.482;2022-08-20T11:00:08;24.10;99.90
46217;DHT22;47258;59.424;13.482;2022-08-20T11:02:36;24.20;99.90
46217;DHT22;47258;59.424;13.482;2022-08-20T11:05:04;24.20;99.90
46217;DHT22;47258;59.424;13.482;2022-08-20T11:07:32;24.30;99.90
46217;DHT22;47258;59.424;13.482;2022-08-20T11:10:00;24.40;99.90
46217;DHT22;47258;59.424;13.482;2022-08-20T11:12:28;24.50;99.90
46217;DHT22;47258;59.424;13.482;2022-08-20T11:14:55;24.50;99.90
46217;DHT22;47258;59.424;13.482;2022-08-20T11:17:24;24.50;99.90
46217;DHT22;47258;59.424;13.482;2022-08-20T11:19:53;24.60;99.90
46217;DHT22;47258;59.424;13.482;2022-08-20T11:22:20;24.70;99.90
46217;DHT22;47258;59.424;13.482;2022-08-20T11:24:47;24.70;99.90
46217;DHT22;47258;59.424;13.482;2022-08-20T11:27:22;24.70;99.90
46217;DHT22;47258;59.424;13.482;2022-08-20T11:29:51;24.70;99.90
46217;DHT22;47258;59.424;13.482;2022-08-20T11:32:19;24.80;99.90
46217;DHT22;47258;59.424;13.482;2022-08-20T11:34:46;24.80;99.90
46217;DHT22;47258;59.424;13.482;2022-08-20T11:37:15;24.80;99.90
46217;DHT22;47258;59.424;13.482;2022-08-20T11:39:42;24.90;99.90
46217;DHT22;47258;59.424;13.482;2022-08-20T11:42:10;24.90;99.90
46217;DHT22;47258;59.424;13.482;2022-08-20T11:44:37;25.00;99.90
46217;DHT22;47258;59.424;13.482;2022-08-20T11:47:06;25.00;99.90
46217;DHT22;47258;59.424;13.482;2022-08-20T11:49:34;25.00;99.90
46217;DHT22;47258;59.424;13.482;2022-08-20T11:52:03;25.00;99.90
46217;DHT22;47258;59.424;13.482;2022-08-20T11:54:30;24.90;99.90
46217;DHT22;47258;59.424;13.482;2022-08-20T11:56:58;24.90;99.90
46217;DHT22;47258;59.424;13.482;2022-08-20T11:59:25;24.90;99.90
46217;DHT22;47258;59.424;13.482;2022-08-20T12:01:52;24.90;99.90
46217;DHT22;47258;59.424;13.482;2022-08-20T12:04:21;24.90;99.90
46217;DHT22;47258;59.424;13.482;2022-08-20T12:06:48;24.80;99.90
46217;DHT22;47258;59.424;13.482;2022-08-20T12:09:16;24.80;99.90
46217;DHT22;47258;59.424;13.482;2022-08-20T12:11:43;24.70;99.90
46217;DHT22;47258;59.424;13.482;2022-08-20T12:14:11;24.70;99.90
46217;DHT22;47258;59.424;13.482;2022-08-20T12:16:38;24.70;99.90
46217;DHT22;47258;59.424;13.482;2022-08-20T12:19:05;24.60;99.90
46217;DHT22;47258;59.424;13.482;2022-08-20T12:21:33;24.50;99.90
46217;DHT22;47258;59.424;13.482;2022-08-20T12:24:00;24.40;99.90
46217;DHT22;47258;59.424;13.482;2022-08-20T12:26:27;24.30;99.90
46217;DHT22;47258;59.424;13.482;2022-08-20T12:28:54;24.20;99.90
46217;DHT22;47258;59.424;13.482;2022-08-20T12:31:21;24.20;99.90
46217;DHT22;47258;59.424;13.482;2022-08-20T12:33:48;24.20;99.90
46217;DHT22;47258;59.424;13.482;2022-08-20T12:36:15;24.20;99.90
46217;DHT22;47258;59.424;13.482;2022-08-20T12:38:43;24.20;99.90
46217;DHT22;47258;59.424;13.482;2022-08-20T12:41:10;24.10;99.90
46217;DHT22;47258;59.424;13.482;2022-08-20T12:43:37;24.10;99.90
46217;DHT22;47258;59.424;13.482;2022-08-20T12:46:05;24.10;99.90
46217;DHT22;47258;59.424;13.482;2022-08-20T12:48:32;24.00;99.90
46217;DHT22;47258;59.424;13.482;2022-08-20T12:50:58;24.00;99.90
46217;DHT22;47258;59.424;13.482;2022-08-20T12:53:25;23.90;99.90
46217;DHT22;47258;59.424;13.482;2022-08-20T12:55:54;23.90;99.90
46217;DHT22;47258;59.424;13.482;2022-08-20T12:58:21;23.90;99.90
46217;DHT22;47258;59.424;13.482;2022-08-20T13:00:48;24.00;99.90
46217;DHT22;47258;59.424;13.482;2022-08-20T13:03:15;24.10;99.90
46217;DHT22;47258;59.424;13.482;2022-08-20T13:05:42;24.10;99.90
46217;DHT22;47258;59.424;13.482;2022-08-20T13:08:10;24.20;99.90
46217;DHT22;47258;59.424;13.482;2022-08-20T13:10:39;24.30;99.90
46217;DHT22;47258;59.424;13.482;2022-08-20T13:13:11;24.30;99.90
46217;DHT22;47258;59.424;13.482;2022-08-20T13:15:39;24.40;99.90
46217;DHT22;47258;59.424;13.482;2022-08-20T13:18:06;24.50;99.90
46217;DHT22;47258;59.424;13.482;2022-08-20T13:20:34;24.50;99.90
46217;DHT22;47258;59.424;13.482;2022-08-20T13:23:02;24.60;99.90
46217;DHT22;47258;59.424;13.482;2022-08-20T13:25:30;24.60;99.90
46217;DHT22;47258;59.424;13.482;2022-08-20T13:27:59;24.60;99.90
46217;DHT22;47258;59.424;13.482;2022-08-20T13:30:28;24.70;99.90
46217;DHT22;47258;59.424;13.482;2022-08-20T13:32:55;24.80;99.90
46217;DHT22;47258;59.424;13.482;2022-08-20T13:35:22;25.00;99.90
46217;DHT22;47258;59.424;13.482;2022-08-20T13:37:49;25.00;99.90
46217;DHT22;47258;59.424;13.482;2022-08-20T13:40:17;25.00;99.90
46217;DHT22;47258;59.424;13.482;2022-08-20T13:42:44;24.90;99.90
46217;DHT22;47258;59.424;13.482;2022-08-20T13:45:12;24.90;99.90
46217;DHT22;47258;59.424;13.482;2022-08-20T13:47:41;24.90;99.90
46217;DHT22;47258;59.424;13.482;2022-08-20T13:50:10;24.90;99.90
46217;DHT22;47258;59.424;13.482;2022-08-20T13:52:38;24.90;99.90
46217;DHT22;47258;59.424;13.482;2022-08-20T13:55:06;24.80;99.90
46217;DHT22;47258;59.424;13.482;2022-08-20T13:57:34;24.70;99.90
46217;DHT22;47258;59.424;13.482;2022-08-20T14:00:03;24.50;99.90
46217;DHT22;47258;59.424;13.482;2022-08-20T14:02:31;24.50;99.90
46217;DHT22;47258;59.424;13.482;2022-08-20T14:04:59;24.40;99.90
46217;DHT22;47258;59.424;13.482;2022-08-20T14:07:28;24.20;99.90
46217;DHT22;47258;59.424;13.482;2022-08-20T14:09:57;24.10;99.90
46217;DHT22;47258;59.424;13.482;2022-08-20T14:12:25;24.00;99.90
46217;DHT22;47258;59.424;13.482;2022-08-20T14:14:53;23.90;99.90
46217;DHT22;47258;59.424;13.482;2022-08-20T14:17:22;23.90;99.90
46217;DHT22;47258;59.424;13.482;2022-08-20T14:19:52;23.90;99.90
46217;DHT22;47258;59.424;13.482;2022-08-20T14:22:20;23.90;99.90
46217;DHT22;47258;59.424;13.482;2022-08-20T14:24:48;23.90;99.90
46217;DHT22;47258;59.424;13.482;2022-08-20T14:27:17;23.90;99.90
46217;DHT22;47258;59.424;13.482;2022-08-20T14:29:45;23.90;99.90
46217;DHT22;47258;59.424;13.482;2022-08-20T14:32:13;23.90;99.90
46217;DHT22;47258;59.424;13.482;2022-08-20T14:34:40;23.90;99.90
46217;DHT22;47258;59.424;13.482;2022-08-20T14:37:12;24.00;99.90
46217;DHT22;47258;59.424;13.482;2022-08-20T14:39:41;23.90;99.90
46217;DHT22;47258;59.424;13.482;2022-08-20T14:42:09;23.90;99.90
46217;DHT22;47258;59.424;13.482;2022-08-20T14:44:36;23.70;99.90
46217;DHT22;47258;59.424;13.482;2022-08-20T14:47:14;23.60;99.90
46217;DHT22;47258;59.424;13.482;2022-08-20T14:49:43;23.50;99.90
46217;DHT22;47258;59.424;13.482;2022-08-20T14:52:11;23.50;99.90
46217;DHT22;47258;59.424;13.482;2022-08-20T14:54:39;23.50;99.90
46217;DHT22;47258;59.424;13.482;2022-08-20T14:57:08;23.50;99.90
46217;DHT22;47258;59.424;13.482;2022-08-20T14:59:35;23.50;99.90
46217;DHT22;47258;59.424;13.482;2022-08-20T15:02:03;23.40;99.90
46217;DHT22;47258;59.424;13.482;2022-08-20T15:04:30;23.40;99.90
46217;DHT22;47258;59.424;13.482;2022-08-20T15:06:57;23.30;99.90
46217;DHT22;47258;59.424;13.482;2022-08-20T15:09:27;23.30;99.90
46217;DHT22;47258;59.424;13.482;2022-08-20T15:11:55;23.20;99.90
46217;DHT22;47258;59.424;13.482;2022-08-20T15:14:23;23.20;99.90
46217;DHT22;47258;59.424;13.482;2022-08-20T15:16:50;23.20;99.90
46217;DHT22;47258;59.424;13.482;2022-08-20T15:19:17;23.20;99.90
46217;DHT22;47258;59.424;13.482;2022-08-20T15:21:44;23.20;99.90
46217;DHT22;47258;59.424;13.482;2022-08-20T15:24:11;23.20;99.90
46217;DHT22;47258;59.424;13.482;2022-08-20T15:26:39;23.20;99.90
46217;DHT22;47258;59.424;13.482;2022-08-20T15:29:06;23.10;99.90
46217;DHT22;47258;59.424;13.482;2022-08-20T15:31:34;23.10;99.90
46217;DHT22;47258;59.424;13.482;2022-08-20T15:34:01;23.20;99.90
46217;DHT22;47258;59.424;13.482;2022-08-20T15:36:28;23.10;99.90
46217;DHT22;47258;59.424;13.482;2022-08-20T15:38:55;23.10;99.90
46217;DHT22;47258;59.424;13.482;2022-08-20T15:41:22;23.20;99.90
46217;DHT22;47258;59.424;13.482;2022-08-20T15:43:49;23.10;99.90
46217;DHT22;47258;59.424;13.482;2022-08-20T15:46:16;23.10;99.90
46217;DHT22;47258;59.424;13.482;2022-08-20T15:48:46;23.20;99.90
46217;DHT22;47258;59.424;13.482;2022-08-20T15:51:21;23.20;99.90
46217;DHT22;47258;59.424;13.482;2022-08-20T15:53:56;23.10;99.90
46217;DHT22;47258;59.424;13.482;2022-08-20T15:56:39;23.10;99.90
46217;DHT22;47258;59.424;13.482;2022-08-20T15:59:20;23.10;99.90
46217;DHT22;47258;59.424;13.482;2022-08-20T16:01:57;23.00;99.90
46217;DHT22;47258;59.424;13.482;2022-08-20T16:04:59;22.90;99.90
46217;DHT22;47258;59.424;13.482;2022-08-20T16:07:36;22.90;99.90
46217;DHT22;47258;59.424;13.482;2022-08-20T16:10:10;22.80;99.90
46217;DHT22;47258;59.424;13.482;2022-08-20T16:12:41;22.80;99.90
46217;DHT22;47258;59.424;13.482;2022-08-20T16:15:11;22.70;99.90
46217;DHT22;47258;59.424;13.482;2022-08-20T16:17:46;22.60;99.90
46217;DHT22;47258;59.424;13.482;2022-08-20T16:20:21;22.60;99.90
46217;DHT22;47258;59.424;13.482;2022-08-20T16:22:49;22.50;99.90
46217;DHT22;47258;59.424;13.482;2022-08-20T16:25:17;22.50;99.90
46217;DHT22;47258;59.424;13.482;2022-08-20T16:27:53;22.50;99.90
46217;DHT22;47258;59.424;13.482;2022-08-20T16:30:29;22.40;99.90
46217;DHT22;47258;59.424;13.482;2022-08-20T16:33:02;22.40;99.90
46217;DHT22;47258;59.424;13.482;2022-08-20T16:35:36;22.30;99.90
46217;DHT22;47258;59.424;13.482;2022-08-20T16:38:13;22.20;99.90
46217;DHT22;47258;59.424;13.482;2022-08-20T16:40:45;22.20;99.90
46217;DHT22;47258;59.424;13.482;2022-08-20T16:43:22;22.10;99.90
46217;DHT22;47258;59.424;13.482;2022-08-20T16:45:54;22.00;99.90
46217;DHT22;47258;59.424;13.482;2022-08-20T16:48:38;21.80;99.90
46217;DHT22;47258;59.424;13.482;2022-08-20T16:51:12;21.80;99.90
46217;DHT22;47258;59.424;13.482;2022-08-20T16:53:42;21.70;99.90
46217;DHT22;47258;59.424;13.482;2022-08-20T16:56:09;21.60;99.90
46217;DHT22;47258;59.424;13.482;2022-08-20T16:58:36;21.50;99.90
46217;DHT22;47258;59.424;13.482;2022-08-20T17:01:08;21.50;99.90
46217;DHT22;47258;59.424;13.482;2022-08-20T17:03:35;21.50;99.90
46217;DHT22;47258;59.424;13.482;2022-08-20T17:08:46;21.40;99.90
46217;DHT22;47258;59.424;13.482;2022-08-20T17:11:14;21.40;99.90
46217;DHT22;47258;59.424;13.482;2022-08-20T17:13:45;21.30;99.90
46217;DHT22;47258;59.424;13.482;2022-08-20T17:16:18;21.30;99.90
46217;DHT22;47258;59.424;13.482;2022-08-20T17:18:48;21.20;99.90
46217;DHT22;47258;59.424;13.482;2022-08-20T17:21:19;21.00;99.90
46217;DHT22;47258;59.424;13.482;2022-08-20T17:23:55;21.00;99.90
46217;DHT22;47258;59.424;13.482;2022-08-20T17:26:26;21.00;99.90
46217;DHT22;47258;59.424;13.482;2022-08-20T17:28:57;21.00;99.90
46217;DHT22;47258;59.424;13.482;2022-08-20T17:31:31;20.90;99.90
46217;DHT22;47258;59.424;13.482;2022-08-20T17:33:58;20.90;99.90
46217;DHT22;47258;59.424;13.482;2022-08-20T17:36:25;20.80;99.90
46217;DHT22;47258;59.424;13.482;2022-08-20T17:38:56;20.80;99.90
46217;DHT22;47258;59.424;13.482;2022-08-20T17:41:26;20.80;99.90
46217;DHT22;47258;59.424;13.482;2022-08-20T17:43:57;20.70;99.90
46217;DHT22;47258;59.424;13.482;2022-08-20T17:46:26;20.70;99.90
46217;DHT22;47258;59.424;13.482;2022-08-20T17:48:55;20.70;99.90
46217;DHT22;47258;59.424;13.482;2022-08-20T17:51:24;20.60;99.90
46217;DHT22;47258;59.424;13.482;2022-08-20T17:53:56;20.50;99.90
46217;DHT22;47258;59.424;13.482;2022-08-20T17:56:27;20.40;99.90
46217;DHT22;47258;59.424;13.482;2022-08-20T17:59:00;20.40;99.90
46217;DHT22;47258;59.424;13.482;2022-08-20T18:06:28;20.20;99.90
46217;DHT22;47258;59.424;13.482;2022-08-20T18:09:03;20.20;99.90
46217;DHT22;47258;59.424;13.482;2022-08-20T18:11:39;20.20;99.90
46217;DHT22;47258;59.424;13.482;2022-08-20T18:14:22;20.10;99.90
46217;DHT22;47258;59.424;13.482;2022-08-20T18:17:12;20.00;99.90
46217;DHT22;47258;59.424;13.482;2022-08-20T18:20:02;19.90;99.90
46217;DHT22;47258;59.424;13.482;2022-08-20T18:22:32;19.80;99.90
46217;DHT22;47258;59.424;13.482;2022-08-20T19:50:28;18.20;99.90
46217;DHT22;47258;59.424;13.482;2022-08-20T19:53:03;18.20;99.90
46217;DHT22;47258;59.424;13.482;2022-08-20T19:55:34;18.10;99.90
46217;DHT22;47258;59.424;13.482;2022-08-20T19:58:04;18.10;99.90
46217;DHT22;47258;59.424;13.482;2022-08-20T20:00:38;18.00;99.90
46217;DHT22;47258;59.424;13.482;2022-08-20T20:03:09;18.00;99.90
46217;DHT22;47258;59.424;13.482;2022-08-20T20:05:46;18.00;99.90
46217;DHT22;47258;59.424;13.482;2022-08-20T20:08:15;17.90;99.90
46217;DHT22;47258;59.424;13.482;2022-08-20T20:10:43;17.90;99.90
46217;DHT22;47258;59.424;13.482;2022-08-20T20:13:17;17.90;99.90
46217;DHT22;47258;59.424;13.482;2022-08-20T20:15:48;17.90;99.90
46217;DHT22;47258;59.424;13.482;2022-08-20T20:18:16;17.80;99.90
46217;DHT22;47258;59.424;13.482;2022-08-20T20:20:46;17.80;99.90
46217;DHT22;47258;59.424;13.482;2022-08-20T20:23:19;17.80;99.90
46217;DHT22;47258;59.424;13.482;2022-08-20T20:25:55;17.80;99.90
46217;DHT22;47258;59.424;13.482;2022-08-20T20:28:25;17.70;99.90
46217;DHT22;47258;59.424;13.482;2022-08-20T20:30:53;17.70;99.90
46217;DHT22;47258;59.424;13.482;2022-08-20T20:33:33;17.70;99.90
46217;DHT22;47258;59.424;13.482;2022-08-20T20:36:05;17.70;99.90
46217;DHT22;47258;59.424;13.482;2022-08-20T20:38:34;17.70;99.90
46217;DHT22;47258;59.424;13.482;2022-08-20T20:41:17;17.60;99.90
46217;DHT22;47258;59.424;13.482;2022-08-20T20:43:57;17.60;99.90
46217;DHT22;47258;59.424;13.482;2022-08-20T20:46:30;17.60;99.90
46217;DHT22;47258;59.424;13.482;2022-08-20T20:49:11;17.50;99.90
46217;DHT22;47258;59.424;13.482;2022-08-20T20:51:52;17.50;99.90
46217;DHT22;47258;59.424;13.482;2022-08-20T20:54:27;17.50;99.90
46217;DHT22;47258;59.424;13.482;2022-08-20T20:57:01;17.40;99.90
46217;DHT22;47258;59.424;13.482;2022-08-20T20:59:30;17.40;99.90
46217;DHT22;47258;59.424;13.482;2022-08-20T21:01:59;17.40;99.90
46217;DHT22;47258;59.424;13.482;2022-08-20T21:04:26;17.40;99.90
46217;DHT22;47258;59.424;13.482;2022-08-20T21:06:55;17.30;99.90
46217;DHT22;47258;59.424;13.482;2022-08-20T21:09:23;17.30;99.90
46217;DHT22;47258;59.424;13.482;2022-08-20T21:11:51;17.30;99.90
46217;DHT22;47258;59.424;13.482;2022-08-20T21:14:18;17.20;99.90
46217;DHT22;47258;59.424;13.482;2022-08-20T21:16:45;17.20;99.90
46217;DHT22;47258;59.424;13.482;2022-08-20T21:19:15;17.20;99.90
46217;DHT22;47258;59.424;13.482;2022-08-20T21:21:42;17.20;99.90
46217;DHT22;47258;59.424;13.482;2022-08-20T21:24:09;17.10;99.90
46217;DHT22;47258;59.424;13.482;2022-08-20T21:26:37;17.10;99.90
46217;DHT22;47258;59.424;13.482;2022-08-20T21:29:07;17.10;99.90
46217;DHT22;47258;59.424;13.482;2022-08-20T21:31:41;17.10;99.90
46217;DHT22;47258;59.424;13.482;2022-08-20T21:34:08;17.10;99.90
46217;DHT22;47258;59.424;13.482;2022-08-20T21:36:37;17.10;99.90
46217;DHT22;47258;59.424;13.482;2022-08-20T21:39:04;17.00;99.90
46217;DHT22;47258;59.424;13.482;2022-08-20T21:41:32;17.00;99.90
46217;DHT22;47258;59.424;13.482;2022-08-20T21:44:10;17.00;99.90
46217;DHT22;47258;59.424;13.482;2022-08-20T21:46:37;17.00;99.90
46217;DHT22;47258;59.424;13.482;2022-08-20T21:49:04;17.00;99.90
46217;DHT22;47258;59.424;13.482;2022-08-20T21:51:32;16.90;99.90
46217;DHT22;47258;59.424;13.482;2022-08-20T21:54:01;16.90;99.90
46217;DHT22;47258;59.424;13.482;2022-08-20T21:56:29;16.90;99.90
46217;DHT22;47258;59.424;13.482;2022-08-20T21:58:58;16.90;99.90
46217;DHT22;47258;59.424;13.482;2022-08-20T22:01:26;16.90;99.90
46217;DHT22;47258;59.424;13.482;2022-08-20T22:03:53;16.80;99.90
46217;DHT22;47258;59.424;13.482;2022-08-20T22:06:20;16.80;99.90
46217;DHT22;47258;59.424;13.482;2022-08-20T22:08:47;16.80;99.90
46217;DHT22;47258;59.424;13.482;2022-08-20T22:11:15;16.80;99.90
46217;DHT22;47258;59.424;13.482;2022-08-20T22:13:43;16.70;99.90
46217;DHT22;47258;59.424;13.482;2022-08-20T22:16:13;16.70;99.90
46217;DHT22;47258;59.424;13.482;2022-08-20T22:18:41;16.70;99.90
46217;DHT22;47258;59.424;13.482;2022-08-20T22:21:13;16.70;99.90
46217;DHT22;47258;59.424;13.482;2022-08-20T22:23:41;16.70;99.90
46217;DHT22;47258;59.424;13.482;2022-08-20T22:26:08;16.70;99.90
46217;DHT22;47258;59.424;13.482;2022-08-20T22:28:37;16.70;99.90
46217;DHT22;47258;59.424;13.482;2022-08-20T22:31:05;16.70;99.90
46217;DHT22;47258;59.424;13.482;2022-08-20T22:33:33;16.70;99.90
46217;DHT22;47258;59.424;13.482;2022-08-20T22:36:02;16.70;99.90
46217;DHT22;47258;59.424;13.482;2022-08-20T22:38:30;16.70;99.90
46217;DHT22;47258;59.424;13.482;2022-08-20T22:40:57;16.70;99.90
46217;DHT22;47258;59.424;13.482;2022-08-20T22:43:24;16.70;99.90
46217;DHT22;47258;59.424;13.482;2022-08-20T22:45:56;16.70;99.90
46217;DHT22;47258;59.424;13.482;2022-08-20T22:48:23;16.70;99.90
46217;DHT22;47258;59.424;13.482;2022-08-20T22:50:51;16.70;99.90
46217;DHT22;47258;59.424;13.482;2022-08-20T22:53:19;16.70;99.90
46217;DHT22;47258;59.424;13.482;2022-08-20T22:55:47;16.70;99.90
46217;DHT22;47258;59.424;13.482;2022-08-20T22:58:14;16.70;99.90
46217;DHT22;47258;59.424;13.482;2022-08-20T23:00:43;16.70;99.90
46217;DHT22;47258;59.424;13.482;2022-08-20T23:03:13;16.60;99.90
46217;DHT22;47258;59.424;13.482;2022-08-20T23:05:41;16.60;99.90
46217;DHT22;47258;59.424;13.482;2022-08-20T23:08:10;16.60;99.90
46217;DHT22;47258;59.424;13.482;2022-08-20T23:10:39;16.60;99.90
46217;DHT22;47258;59.424;13.482;2022-08-20T23:13:06;16.60;99.90
46217;DHT22;47258;59.424;13.482;2022-08-20T23:15:36;16.50;99.90
46217;DHT22;47258;59.424;13.482;2022-08-20T23:18:06;16.50;99.90
46217;DHT22;47258;59.424;13.482;2022-08-20T23:20:35;16.40;99.90
46217;DHT22;47258;59.424;13.482;2022-08-20T23:23:02;16.40;99.90
46217;DHT22;47258;59.424;13.482;2022-08-20T23:25:29;16.40;99.90
46217;DHT22;47258;59.424;13.482;2022-08-20T23:27:57;16.30;99.90
46217;DHT22;47258;59.424;13.482;2022-08-20T23:30:24;16.30;99.90
46217;DHT22;47258;59.424;13.482;2022-08-20T23:32:52;16.30;99.90
46217;DHT22;47258;59.424;13.482;2022-08-20T23:35:19;16.30;99.90
46217;DHT22;47258;59.424;13.482;2022-08-20T23:37:52;16.30;99.90
46217;DHT22;47258;59.424;13.482;2022-08-20T23:40:22;16.30;99.90
46217;DHT22;47258;59.424;13.482;2022-08-20T23:42:49;16.30;99.90
46217;DHT22;47258;59.424;13.482;2022-08-20T23:45:17;16.30;99.90
46217;DHT22;47258;59.424;13.482;2022-08-20T23:47:44;16.30;99.90
46217;DHT22;47258;59.424;13.482;2022-08-20T23:50:14;16.20;99.90
46217;DHT22;47258;59.424;13.482;2022-08-20T23:52:41;16.20;99.90
46217;DHT22;47258;59.424;13.482;2022-08-20T23:55:10;16.20;99.90
46217;DHT22;47258;59.424;13.482;2022-08-20T23:57:38;16.20;99.90
